Time;durP1;ratioP1;P1;durP2;ratioP2;P2;SDS_P1;SDS_P2;PMS_P1;PMS_P2;Temp;Humidity;BMP_temperature;BMP_pressure;BME280_temperature;BME280_humidity;BME280_pressure;Samples;Min_cycle;Max_cycle;Signal;HPM_P1;HPM_P2
2022/01/06 00:01:59;;;;;;;29.33;4.10;;;6.10;99.90;;;;;;5109389;27;38241;-71
2022/01/06 00:04:25;;;;;;;24.23;3.70;;;6.10;99.90;;;;;;5099917;27;39026;-71
2022/01/06 00:06:51;;;;;;;23.67;3.70;;;6.20;99.90;;;;;;5081314;27;39397;-73
2022/01/06 00:09:19;;;;;;;16.83;3.60;;;6.20;99.90;;;;;;5078578;27;39105;-71
2022/01/06 00:11:45;;;;;;;20.45;2.60;;;6.30;99.90;;;;;;5094837;27;39556;-70
2022/01/06 00:14:22;;;;;;;16.80;2.43;;;6.30;99.90;;;;;;5072241;28;38972;-71
2022/01/06 00:24:49;;;;;;;29.83;4.13;;;6.30;99.90;;;;;;5100473;27;39246;-70
2022/01/06 00:27:15;;;;;;;23.67;3.20;;;6.30;99.90;;;;;;5091332;27;40609;-72
2022/01/06 00:29:42;;;;;;;28.53;4.63;;;6.30;99.90;;;;;;5088990;27;37506;-72
2022/01/06 00:32:09;;;;;;;19.97;3.30;;;6.20;99.90;;;;;;5081763;27;39066;-71
2022/01/06 00:34:35;;;;;;;26.40;3.00;;;6.10;99.90;;;;;;5093815;27;39086;-71
2022/01/06 00:37:02;;;;;;;20.77;2.50;;;6.00;99.90;;;;;;5088696;27;37559;-71
2022/01/06 00:39:29;;;;;;;25.60;3.67;;;6.00;99.90;;;;;;5085485;27;36474;-70
2022/01/06 00:41:58;;;;;;;16.53;3.00;;;5.90;99.90;;;;;;5112376;27;39577;-70
2022/01/06 00:44:24;;;;;;;30.03;3.70;;;5.80;99.90;;;;;;5084045;27;37654;-72
2022/01/06 00:46:51;;;;;;;26.03;4.17;;;5.70;99.90;;;;;;5108538;27;38222;-71
2022/01/06 00:49:17;;;;;;;17.57;3.00;;;5.70;99.90;;;;;;5096271;27;37338;-72
2022/01/06 00:51:44;;;;;;;28.53;3.37;;;5.60;99.90;;;;;;5078096;28;39068;-71
2022/01/06 00:54:10;;;;;;;21.73;3.20;;;5.60;99.90;;;;;;5079855;27;37618;-71
2022/01/06 00:56:36;;;;;;;20.23;3.23;;;5.50;99.90;;;;;;5082681;27;37664;-72
2022/01/06 00:59:02;;;;;;;26.50;3.20;;;5.30;99.90;;;;;;5103113;27;38016;-71
2022/01/06 01:01:28;;;;;;;17.23;2.10;;;5.30;99.90;;;;;;5098895;27;38567;-72
2022/01/06 01:03:54;;;;;;;20.17;2.97;;;5.30;99.90;;;;;;5103755;27;38467;-71
2022/01/06 01:06:20;;;;;;;22.07;2.67;;;5.20;99.90;;;;;;5091050;27;38088;-71
2022/01/06 01:08:46;;;;;;;30.70;3.87;;;5.20;99.90;;;;;;5103813;27;35433;-72
2022/01/06 01:11:13;;;;;;;21.30;3.80;;;5.20;99.90;;;;;;5079306;27;40505;-72
2022/01/06 01:13:54;;;;;;;24.90;2.93;;;5.20;99.90;;;;;;5102219;27;39581;-72
2022/01/06 01:16:29;;;;;;;30.80;4.13;;;5.30;99.90;;;;;;5096676;27;38961;-72
2022/01/06 01:18:57;;;;;;;22.53;2.93;;;5.40;99.90;;;;;;5104312;27;36967;-72
2022/01/06 01:21:27;;;;;;;16.50;3.53;;;5.50;99.90;;;;;;5105907;27;38672;-72
2022/01/06 01:23:58;;;;;;;26.93;3.50;;;5.80;99.90;;;;;;5086018;27;37998;-72
2022/01/06 01:26:25;;;;;;;15.60;2.60;;;6.00;99.90;;;;;;5103292;27;38791;-73
2022/01/06 01:28:52;;;;;;;26.00;3.33;;;6.30;99.90;;;;;;5085190;27;36067;-71
2022/01/06 01:33:50;;;;;;;24.23;3.60;;;6.50;99.90;;;;;;5106749;27;37979;-72
2022/01/06 01:36:16;;;;;;;18.77;2.73;;;6.40;99.90;;;;;;5106925;27;38094;-72
2022/01/06 01:38:42;;;;;;;18.10;3.47;;;6.30;99.90;;;;;;5103892;27;37889;-72
2022/01/06 01:41:09;;;;;;;19.77;2.77;;;6.20;99.90;;;;;;5082502;27;39723;-72
2022/01/06 01:43:36;;;;;;;15.47;2.63;;;6.20;99.90;;;;;;5097263;27;38774;-72
2022/01/06 01:46:12;;;;;;;15.57;2.63;;;6.20;99.90;;;;;;5074314;28;39752;-72
2022/01/06 01:48:40;;;;;;;19.10;3.87;;;6.10;99.90;;;;;;5103900;27;37376;-70
2022/01/06 01:51:08;;;;;;;15.60;2.43;;;6.10;99.90;;;;;;5105350;27;39636;-70
2022/01/06 01:53:36;;;;;;;14.17;1.73;;;6.20;99.90;;;;;;5081689;28;39201;-70
2022/01/06 01:56:10;;;;;;;13.17;1.93;;;6.10;99.90;;;;;;5096364;27;38241;-71
2022/01/06 01:58:38;;;;;;;11.83;2.80;;;6.20;99.90;;;;;;5086730;27;38646;-71
2022/01/06 02:01:04;;;;;;;12.73;2.37;;;6.30;99.90;;;;;;5082930;27;39753;-70
2022/01/06 02:03:31;;;;;;;17.63;2.30;;;6.40;99.90;;;;;;5085523;27;38991;-71
2022/01/06 02:05:57;;;;;;;15.30;2.87;;;6.40;99.90;;;;;;5098964;27;37850;-71
2022/01/06 02:08:23;;;;;;;15.80;2.63;;;6.50;99.90;;;;;;5082310;28;38544;-71
2022/01/06 02:10:49;;;;;;;19.47;3.13;;;6.40;99.90;;;;;;5082838;28;40804;-71
2022/01/06 02:13:15;;;;;;;20.00;2.37;;;6.30;99.90;;;;;;5099199;27;37553;-71
2022/01/06 02:15:42;;;;;;;12.60;2.13;;;6.20;99.90;;;;;;5079563;27;39799;-71
2022/01/06 02:18:08;;;;;;;18.93;2.80;;;6.20;99.90;;;;;;5104261;28;37630;-71
2022/01/06 02:20:34;;;;;;;20.27;2.97;;;6.10;99.90;;;;;;5094559;27;39745;-71
2022/01/06 02:23:01;;;;;;;19.53;3.50;;;6.00;99.90;;;;;;5098080;27;39349;-71
2022/01/06 02:25:29;;;;;;;16.50;2.70;;;5.90;99.90;;;;;;5082036;27;37436;-71
2022/01/06 02:27:57;;;;;;;13.60;2.30;;;5.90;99.90;;;;;;5086539;27;37186;-72
2022/01/06 02:30:25;;;;;;;22.13;2.20;;;5.80;99.90;;;;;;5085534;27;40302;-72
2022/01/06 02:32:53;;;;;;;21.23;2.50;;;5.80;99.90;;;;;;5088547;28;38615;-71
2022/01/06 02:35:22;;;;;;;13.23;2.13;;;5.80;99.90;;;;;;5078891;27;38831;-71
2022/01/06 02:37:48;;;;;;;23.20;2.70;;;5.80;99.90;;;;;;5097950;27;37916;-71
2022/01/06 02:40:17;;;;;;;15.90;2.27;;;5.70;99.90;;;;;;5097802;27;38711;-71
2022/01/06 02:42:49;;;;;;;16.10;2.40;;;5.70;99.90;;;;;;5077799;27;37202;-71
2022/01/06 02:45:17;;;;;;;19.48;3.33;;;5.60;99.90;;;;;;5098659;27;38769;-71
2022/01/06 02:47:45;;;;;;;20.03;2.90;;;5.50;99.90;;;;;;5101552;27;35197;-71
2022/01/06 02:50:12;;;;;;;23.00;3.70;;;5.60;99.90;;;;;;5089405;28;38434;-72
2022/01/06 02:52:38;;;;;;;20.30;3.00;;;5.60;99.90;;;;;;5096933;27;37702;-72
2022/01/06 02:55:06;;;;;;;15.63;2.67;;;5.60;99.90;;;;;;5097542;27;39272;-71
2022/01/06 02:57:32;;;;;;;15.37;2.37;;;5.60;99.90;;;;;;5085959;28;38032;-71
2022/01/06 02:59:59;;;;;;;21.30;3.00;;;5.70;99.90;;;;;;5082565;28;37602;-71
2022/01/06 03:02:26;;;;;;;17.67;2.67;;;5.70;99.90;;;;;;5084187;27;40197;-71
2022/01/06 03:04:52;;;;;;;16.50;2.80;;;5.60;99.90;;;;;;5105357;27;38161;-72
2022/01/06 03:07:19;;;;;;;15.67;3.40;;;5.60;99.90;;;;;;5077602;27;36340;-72
2022/01/06 03:09:51;;;;;;;22.63;2.40;;;5.60;99.90;;;;;;5093557;27;37626;-73
2022/01/06 03:12:26;;;;;;;13.13;2.35;;;5.50;99.90;;;;;;5096393;27;36030;-72
2022/01/06 03:14:52;;;;;;;19.77;3.20;;;5.40;99.90;;;;;;5082933;28;37477;-72
2022/01/06 03:17:18;;;;;;;22.70;2.97;;;5.40;99.90;;;;;;5101115;27;37128;-72
2022/01/06 03:19:44;;;;;;;19.63;2.77;;;5.40;99.90;;;;;;5101274;27;38921;-72
2022/01/06 03:22:11;;;;;;;22.77;3.20;;;5.50;99.90;;;;;;5100613;27;39167;-72
2022/01/06 03:24:37;;;;;;;12.77;2.77;;;5.40;99.90;;;;;;5083855;28;39773;-73
2022/01/06 03:27:03;;;;;;;25.10;2.93;;;5.40;99.90;;;;;;5081068;28;38706;-72
2022/01/06 03:29:29;;;;;;;30.93;3.70;;;5.40;99.90;;;;;;5082349;28;39209;-72
2022/01/06 03:31:55;;;;;;;26.40;3.30;;;5.30;99.90;;;;;;5080902;27;39940;-71
2022/01/06 03:34:21;;;;;;;14.80;2.30;;;5.20;99.90;;;;;;5098846;27;38138;-72
2022/01/06 03:36:47;;;;;;;20.30;3.40;;;5.10;99.90;;;;;;5093483;27;37333;-71
2022/01/06 03:39:13;;;;;;;16.00;2.63;;;4.90;99.90;;;;;;5075587;28;39225;-72
2022/01/06 03:41:39;;;;;;;24.80;3.43;;;4.80;99.90;;;;;;5093439;27;39299;-71
2022/01/06 03:44:05;;;;;;;23.20;2.87;;;4.70;99.90;;;;;;5080431;27;40273;-71
2022/01/06 03:46:31;;;;;;;15.60;2.30;;;4.60;99.90;;;;;;5083074;27;37635;-71
2022/01/06 03:48:57;;;;;;;16.60;2.70;;;4.60;99.90;;;;;;5100907;27;39340;-72
2022/01/06 03:51:24;;;;;;;21.73;3.57;;;4.40;99.90;;;;;;5092063;27;38486;-71
2022/01/06 03:53:51;;;;;;;30.83;3.57;;;4.30;99.90;;;;;;5093470;27;37723;-72
2022/01/06 03:56:17;;;;;;;24.07;2.97;;;4.20;99.90;;;;;;5080212;27;37962;-72
2022/01/06 03:58:44;;;;;;;15.27;2.37;;;4.20;99.90;;;;;;5092298;27;39936;-72
2022/01/06 04:01:11;;;;;;;14.93;2.47;;;4.30;99.90;;;;;;5094024;27;39175;-71
2022/01/06 04:03:38;;;;;;;20.77;3.23;;;4.20;99.90;;;;;;5092565;27;37938;-72
2022/01/06 04:06:04;;;;;;;22.93;4.07;;;4.20;99.90;;;;;;5092536;27;37040;-72
2022/01/06 04:08:30;;;;;;;25.83;3.50;;;4.20;99.90;;;;;;5094051;27;38749;-72
2022/01/06 04:10:57;;;;;;;15.47;2.70;;;4.40;99.90;;;;;;5074772;27;40116;-72
2022/01/06 04:13:24;;;;;;;22.57;3.17;;;4.50;99.90;;;;;;5090996;27;37948;-73
2022/01/06 04:15:50;;;;;;;16.87;2.67;;;4.60;99.90;;;;;;5078091;27;38180;-71
2022/01/06 04:18:16;;;;;;;21.00;3.70;;;4.80;99.90;;;;;;5081822;27;40894;-71
2022/01/06 04:20:42;;;;;;;10.67;2.20;;;4.80;99.90;;;;;;5095395;27;39366;-71
2022/01/06 04:23:08;;;;;;;16.97;2.47;;;4.80;99.90;;;;;;5072637;27;39200;-72
2022/01/06 04:25:34;;;;;;;12.20;2.90;;;4.80;99.90;;;;;;5092232;27;38603;-72
2022/01/06 04:28:03;;;;;;;19.47;3.33;;;4.90;99.90;;;;;;5078222;27;38909;-72
2022/01/06 04:30:29;;;;;;;15.10;2.30;;;4.90;99.90;;;;;;5100496;27;48985;-72
2022/01/06 04:32:56;;;;;;;18.83;3.13;;;5.00;99.90;;;;;;5078954;27;37213;-72
2022/01/06 04:35:22;;;;;;;11.73;2.20;;;5.00;99.90;;;;;;5100207;27;37095;-72
2022/01/06 04:37:49;;;;;;;18.77;2.83;;;5.10;99.90;;;;;;5101928;27;37636;-74
2022/01/06 04:40:15;;;;;;;10.23;1.87;;;5.10;99.90;;;;;;5082685;28;38824;-72
2022/01/06 04:42:41;;;;;;;16.43;1.90;;;5.10;99.90;;;;;;5099541;27;38079;-71
2022/01/06 04:45:08;;;;;;;9.73;1.77;;;5.10;99.90;;;;;;5083282;28;37919;-72
2022/01/06 04:47:34;;;;;;;13.53;1.73;;;5.00;99.90;;;;;;5106146;27;39070;-71
2022/01/06 04:50:00;;;;;;;15.03;2.07;;;4.90;99.90;;;;;;5082924;28;37984;-72
2022/01/06 04:52:27;;;;;;;15.23;2.10;;;4.80;99.90;;;;;;5098474;27;39749;-72
2022/01/06 04:54:53;;;;;;;13.30;2.30;;;4.60;99.90;;;;;;5084851;27;37677;-71
2022/01/06 04:57:19;;;;;;;15.57;1.97;;;4.40;99.90;;;;;;5097050;27;38928;-72
2022/01/06 04:59:45;;;;;;;9.53;2.23;;;4.30;99.90;;;;;;5083854;27;39343;-71
2022/01/06 05:02:11;;;;;;;12.00;2.07;;;4.10;99.90;;;;;;5102365;27;38261;-73
2022/01/06 05:04:37;;;;;;;9.63;1.73;;;4.00;99.90;;;;;;5101770;27;36592;-73
2022/01/06 05:07:03;;;;;;;7.57;1.30;;;4.00;99.90;;;;;;5080188;27;41509;-71
2022/01/06 05:09:29;;;;;;;19.23;2.17;;;4.00;99.90;;;;;;5083526;28;39083;-71
2022/01/06 05:11:56;;;;;;;13.43;1.80;;;3.90;99.90;;;;;;5096759;27;39168;-71
2022/01/06 05:14:22;;;;;;;9.60;1.33;;;4.20;99.90;;;;;;5080178;27;37473;-72
2022/01/06 05:16:48;;;;;;;8.07;1.40;;;4.30;99.90;;;;;;5088306;27;41225;-72
2022/01/06 05:19:14;;;;;;;11.93;1.67;;;4.70;99.90;;;;;;5084472;28;39059;-71
2022/01/06 05:21:40;;;;;;;7.57;1.00;;;5.00;99.90;;;;;;5101361;27;38482;-71
2022/01/06 05:24:12;;;;;;;14.50;1.20;;;5.20;99.90;;;;;;5101859;27;37082;-72
2022/01/06 05:26:39;;;;;;;9.80;1.45;;;5.30;99.90;;;;;;5099686;27;39960;-71
2022/01/06 05:29:07;;;;;;;6.37;1.07;;;5.30;99.90;;;;;;5086041;27;37918;-71
2022/01/06 05:31:34;;;;;;;15.23;1.47;;;5.30;99.90;;;;;;5097315;27;37077;-72
2022/01/06 05:34:00;;;;;;;11.50;1.53;;;5.20;99.90;;;;;;5087067;27;38497;-72
2022/01/06 05:36:26;;;;;;;12.23;1.37;;;5.10;99.90;;;;;;5077705;27;39783;-72
2022/01/06 05:38:52;;;;;;;14.27;2.13;;;4.90;99.90;;;;;;5078547;28;39191;-71
2022/01/06 05:41:18;;;;;;;14.43;2.53;;;4.80;99.90;;;;;;5099145;27;37514;-72
2022/01/06 05:43:44;;;;;;;14.07;1.83;;;4.90;99.90;;;;;;5093838;27;37392;-71
2022/01/06 05:46:10;;;;;;;13.03;1.60;;;4.80;99.90;;;;;;5105088;27;38414;-72
2022/01/06 05:48:36;;;;;;;16.53;1.80;;;4.70;99.90;;;;;;5094207;27;39994;-72
2022/01/06 05:51:02;;;;;;;16.17;1.93;;;4.60;99.90;;;;;;5086874;27;39526;-72
2022/01/06 05:53:30;;;;;;;15.73;1.67;;;4.40;99.90;;;;;;5086018;27;37592;-72
2022/01/06 05:55:56;;;;;;;9.77;1.47;;;4.20;99.90;;;;;;5081486;27;39135;-72
2022/01/06 05:58:22;;;;;;;14.57;2.07;;;4.00;99.90;;;;;;5091885;27;38292;-72
2022/01/06 06:00:49;;;;;;;12.90;2.17;;;3.90;99.90;;;;;;5077684;28;39726;-72
2022/01/06 06:03:15;;;;;;;10.73;2.43;;;3.70;99.90;;;;;;5086959;28;38292;-72
2022/01/06 06:05:42;;;;;;;14.73;2.27;;;3.50;99.90;;;;;;5097988;27;38337;-71
2022/01/06 06:08:11;;;;;;;13.33;2.07;;;3.30;99.90;;;;;;5083952;27;39782;-72
2022/01/06 06:10:38;;;;;;;9.97;1.50;;;3.20;99.90;;;;;;5088817;27;39185;-72
2022/01/06 06:13:04;;;;;;;14.53;1.83;;;3.10;99.90;;;;;;5097095;27;35443;-72
2022/01/06 06:15:37;;;;;;;12.77;1.50;;;3.00;99.90;;;;;;5083233;27;39698;-72
2022/01/06 06:18:07;;;;;;;9.20;1.38;;;2.90;99.90;;;;;;5090054;27;37373;-72
2022/01/06 06:20:33;;;;;;;15.37;1.87;;;2.80;99.90;;;;;;5097270;27;48416;-73
2022/01/06 06:22:59;;;;;;;22.40;2.30;;;2.80;99.90;;;;;;5096760;27;36990;-73
2022/01/06 06:25:25;;;;;;;15.93;2.07;;;2.70;99.90;;;;;;5092989;27;38834;-72
2022/01/06 06:27:52;;;;;;;10.60;1.83;;;2.70;99.90;;;;;;5074858;28;40470;-72
2022/01/06 06:30:18;;;;;;;23.67;2.23;;;2.60;99.90;;;;;;5096368;27;37574;-74
2022/01/06 06:32:45;;;;;;;10.23;1.77;;;2.60;99.90;;;;;;5080750;27;38252;-73
2022/01/06 06:35:11;;;;;;;13.77;2.77;;;2.50;99.90;;;;;;5095187;27;38877;-73
2022/01/06 06:37:38;;;;;;;12.63;1.87;;;2.50;99.90;;;;;;5088324;27;39177;-72
2022/01/06 06:40:08;;;;;;;13.93;1.90;;;2.40;99.90;;;;;;5099605;27;38126;-73
2022/01/06 06:42:34;;;;;;;19.07;2.70;;;2.40;99.90;;;;;;5080942;27;46987;-72
2022/01/06 06:45:00;;;;;;;17.70;2.73;;;2.40;99.90;;;;;;5074522;28;39160;-72
2022/01/06 06:47:26;;;;;;;9.70;2.03;;;2.30;99.90;;;;;;5088960;28;38985;-72
2022/01/06 06:49:55;;;;;;;8.27;2.17;;;2.20;99.90;;;;;;5096805;27;36900;-73
2022/01/06 06:52:21;;;;;;;16.30;2.70;;;2.20;99.90;;;;;;5097598;27;36804;-72
2022/01/06 06:54:48;;;;;;;12.17;3.33;;;2.20;99.90;;;;;;5067572;28;39436;-75
2022/01/06 06:57:14;;;;;;;15.80;5.87;;;2.30;99.90;;;;;;5077646;27;39905;-72
2022/01/06 06:59:40;;;;;;;15.67;3.30;;;2.30;99.90;;;;;;5088744;27;38762;-73
2022/01/06 07:02:07;;;;;;;11.87;3.10;;;2.30;99.90;;;;;;5104287;27;38488;-72
2022/01/06 07:04:33;;;;;;;25.40;5.23;;;2.30;99.90;;;;;;5090572;28;37646;-72
2022/01/06 07:06:59;;;;;;;21.97;4.00;;;2.30;99.90;;;;;;5087446;27;37367;-73
2022/01/06 07:09:25;;;;;;;14.23;4.00;;;2.70;99.90;;;;;;5102059;27;37958;-72
2022/01/06 07:11:51;;;;;;;24.03;6.27;;;2.70;99.90;;;;;;5108450;27;38759;-72
2022/01/06 07:14:18;;;;;;;20.27;5.67;;;2.60;99.90;;;;;;5100879;27;38865;-73
2022/01/06 07:16:44;;;;;;;25.23;6.10;;;2.70;99.90;;;;;;5088695;27;39136;-73
2022/01/06 07:19:10;;;;;;;17.40;5.33;;;2.70;99.90;;;;;;5080666;27;39730;-73
2022/01/06 07:21:36;;;;;;;20.63;5.93;;;2.70;99.90;;;;;;5100187;27;36791;-73
2022/01/06 07:24:02;;;;;;;20.97;7.13;;;2.70;99.90;;;;;;5099834;27;38613;-72
2022/01/06 07:26:28;;;;;;;24.83;6.80;;;2.70;99.90;;;;;;5088861;28;39686;-71
2022/01/06 07:28:54;;;;;;;17.83;4.70;;;2.50;99.90;;;;;;5105152;27;38895;-72
2022/01/06 07:31:20;;;;;;;18.27;4.63;;;2.50;99.90;;;;;;5082250;28;37635;-72
2022/01/06 07:33:46;;;;;;;15.13;3.80;;;2.40;99.90;;;;;;5078416;28;39663;-72
2022/01/06 07:36:12;;;;;;;12.03;3.87;;;2.30;99.90;;;;;;5067899;27;39043;-72
2022/01/06 07:38:38;;;;;;;15.53;3.43;;;2.30;99.90;;;;;;5082748;27;39007;-72
2022/01/06 07:41:04;;;;;;;27.90;4.77;;;2.30;99.90;;;;;;5098984;27;36593;-72
2022/01/06 07:43:31;;;;;;;12.10;3.80;;;2.20;99.90;;;;;;5099959;27;39239;-72
2022/01/06 07:45:57;;;;;;;18.93;2.97;;;2.20;99.90;;;;;;5083725;27;37960;-72
2022/01/06 07:48:36;;;;;;;11.93;2.63;;;2.10;99.90;;;;;;5083423;28;40148;-71
2022/01/06 07:51:03;;;;;;;19.17;2.90;;;2.00;99.90;;;;;;5101514;27;37087;-73
2022/01/06 07:53:29;;;;;;;23.30;3.53;;;2.00;99.90;;;;;;5084546;27;39182;-72
2022/01/06 07:55:55;;;;;;;22.57;4.10;;;1.90;99.90;;;;;;5097005;27;39346;-72
2022/01/06 07:58:21;;;;;;;28.40;8.37;;;1.90;99.90;;;;;;5081370;27;39099;-71
2022/01/06 08:00:47;;;;;;;19.83;5.57;;;1.90;99.90;;;;;;5096216;27;37274;-72
2022/01/06 08:03:13;;;;;;;22.57;6.67;;;1.90;99.90;;;;;;5107568;27;38303;-71
2022/01/06 08:05:39;;;;;;;35.57;8.13;;;2.00;99.90;;;;;;5085416;27;39160;-72
2022/01/06 08:08:05;;;;;;;18.13;4.30;;;2.00;99.90;;;;;;5083533;27;37675;-72
2022/01/06 08:10:31;;;;;;;18.53;3.73;;;2.10;99.90;;;;;;5090375;27;38302;-72
2022/01/06 08:12:58;;;;;;;22.20;3.83;;;2.20;99.90;;;;;;5107951;27;38702;-72
2022/01/06 08:15:24;;;;;;;22.67;4.70;;;2.30;99.90;;;;;;5083649;27;39243;-72
2022/01/06 08:17:50;;;;;;;18.10;4.07;;;2.30;99.90;;;;;;5101219;27;38049;-72
2022/01/06 08:20:16;;;;;;;11.13;3.27;;;2.20;99.90;;;;;;5095581;27;37280;-71
2022/01/06 08:22:43;;;;;;;16.23;2.70;;;2.30;99.90;;;;;;5101242;27;39144;-72
2022/01/06 08:25:10;;;;;;;14.53;2.70;;;2.40;99.90;;;;;;5097757;27;39104;-72
2022/01/06 08:27:36;;;;;;;13.10;2.50;;;2.50;99.90;;;;;;5097865;28;38067;-73
2022/01/06 08:30:04;;;;;;;9.57;2.37;;;2.60;99.90;;;;;;5106816;27;37382;-73
2022/01/06 08:32:30;;;;;;;13.30;2.90;;;2.70;99.90;;;;;;5098424;27;38776;-73
2022/01/06 08:34:56;;;;;;;10.60;2.40;;;2.70;99.90;;;;;;5094862;27;39518;-72
2022/01/06 08:37:22;;;;;;;19.37;3.77;;;2.80;99.90;;;;;;5086151;27;39253;-72
2022/01/06 08:39:48;;;;;;;23.80;3.80;;;2.80;99.90;;;;;;5097855;27;38136;-72
2022/01/06 08:42:15;;;;;;;12.63;3.23;;;2.80;99.90;;;;;;5088835;27;40981;-72
2022/01/06 08:44:42;;;;;;;10.90;2.37;;;2.80;99.90;;;;;;5100985;27;39030;-73
2022/01/06 08:47:09;;;;;;;11.13;2.70;;;2.80;99.90;;;;;;5112610;27;38018;-72
2022/01/06 08:49:36;;;;;;;14.13;2.83;;;2.90;99.90;;;;;;5105184;27;38125;-72
2022/01/06 08:52:04;;;;;;;24.83;3.03;;;3.10;99.90;;;;;;5082147;27;38179;-72
2022/01/06 08:54:30;;;;;;;16.53;3.37;;;3.20;99.90;;;;;;5098231;27;37833;-72
2022/01/06 08:56:56;;;;;;;25.00;5.30;;;3.40;99.90;;;;;;5103198;27;38930;-72
2022/01/06 08:59:22;;;;;;;15.17;2.60;;;3.60;99.90;;;;;;5105435;27;35186;-72
2022/01/06 09:01:48;;;;;;;12.73;2.10;;;3.70;99.90;;;;;;5079987;27;39569;-72
2022/01/06 09:04:15;;;;;;;15.30;2.83;;;3.90;99.90;;;;;;5078881;27;39072;-71
2022/01/06 09:06:41;;;;;;;17.13;2.47;;;3.90;99.90;;;;;;5089141;28;38455;-71
2022/01/06 09:09:07;;;;;;;11.93;2.43;;;4.10;99.90;;;;;;5084003;28;37668;-71
2022/01/06 09:11:33;;;;;;;17.37;3.77;;;4.20;99.90;;;;;;5089974;27;39284;-72
2022/01/06 09:13:59;;;;;;;8.87;2.10;;;4.30;99.90;;;;;;5092133;28;39036;-71
2022/01/06 09:16:26;;;;;;;19.33;2.67;;;4.40;99.90;;;;;;5099622;27;38295;-71
2022/01/06 09:18:52;;;;;;;19.23;2.73;;;4.50;99.90;;;;;;5109289;27;38133;-71
2022/01/06 09:21:22;;;;;;;17.57;2.83;;;4.60;99.90;;;;;;5100897;27;38462;-71
2022/01/06 09:23:50;;;;;;;12.60;2.17;;;4.60;99.90;;;;;;5083300;28;38499;-71
2022/01/06 09:26:17;;;;;;;12.10;2.80;;;4.70;99.90;;;;;;5097601;27;39080;-71
2022/01/06 09:28:43;;;;;;;12.43;2.20;;;4.70;99.90;;;;;;5079482;27;37800;-71
2022/01/06 09:31:09;;;;;;;9.87;2.57;;;4.60;99.90;;;;;;5093351;27;39493;-71
2022/01/06 09:33:35;;;;;;;13.13;2.63;;;4.60;99.90;;;;;;5100735;27;38372;-71
2022/01/06 09:36:02;;;;;;;17.03;2.77;;;4.60;99.90;;;;;;5098208;27;38020;-71
2022/01/06 09:38:28;;;;;;;12.83;2.00;;;4.60;99.90;;;;;;5090368;27;36080;-72
2022/01/06 09:40:54;;;;;;;14.13;2.03;;;4.70;99.90;;;;;;5095562;27;38947;-72
2022/01/06 09:43:27;;;;;;;21.13;3.40;;;4.70;99.90;;;;;;5096622;27;37436;-72
2022/01/06 09:45:53;;;;;;;16.35;2.60;;;4.80;99.90;;;;;;5092360;27;38372;-72
2022/01/06 09:48:22;;;;;;;18.80;2.63;;;4.80;99.90;;;;;;5085102;28;37871;-72
2022/01/06 09:50:49;;;;;;;19.90;3.57;;;4.90;99.90;;;;;;5083545;27;40196;-72
2022/01/06 09:53:17;;;;;;;16.87;2.03;;;5.00;99.90;;;;;;5101497;27;38327;-72
2022/01/06 09:55:43;;;;;;;11.90;2.30;;;5.10;99.90;;;;;;5092035;27;38912;-72
2022/01/06 09:58:10;;;;;;;18.20;3.17;;;5.20;99.90;;;;;;5097989;27;37549;-71
2022/01/06 10:00:37;;;;;;;11.10;1.90;;;5.20;99.90;;;;;;5091782;27;39750;-71
2022/01/06 10:03:06;;;;;;;10.83;1.90;;;5.20;99.90;;;;;;5086100;27;37336;-71
2022/01/06 10:05:42;;;;;;;16.30;2.47;;;5.30;99.90;;;;;;5081328;27;39663;-71
2022/01/06 10:08:10;;;;;;;17.17;3.43;;;5.40;99.90;;;;;;5086488;27;38709;-71
2022/01/06 10:10:40;;;;;;;15.77;3.27;;;5.50;99.90;;;;;;5106313;27;20946;-70
2022/01/06 10:13:09;;;;;;;20.33;2.30;;;5.70;99.90;;;;;;5085457;27;37584;-70
2022/01/06 10:15:39;;;;;;;17.87;3.30;;;5.80;99.90;;;;;;5084147;27;38399;-70
2022/01/06 10:18:12;;;;;;;11.60;1.90;;;5.90;99.90;;;;;;5090778;27;38071;-74
2022/01/06 10:20:38;;;;;;;12.67;1.90;;;6.10;99.90;;;;;;5079728;27;39550;-71
2022/01/06 10:23:11;;;;;;;11.47;2.00;;;6.30;99.90;;;;;;5098456;27;39502;-70
2022/01/06 10:25:38;;;;;;;16.50;2.87;;;6.40;99.90;;;;;;5090429;27;39078;-70
2022/01/06 10:28:16;;;;;;;20.13;2.53;;;6.60;99.90;;;;;;5088744;27;38229;-70
2022/01/06 10:30:47;;;;;;;14.23;1.87;;;6.70;99.90;;;;;;5094583;27;40504;-71
2022/01/06 10:33:33;;;;;;;11.57;1.80;;;6.80;99.90;;;;;;5101451;27;38457;-70
2022/01/06 10:36:05;;;;;;;10.53;1.20;;;6.80;99.90;;;;;;5090914;27;38672;-70
2022/01/06 10:38:31;;;;;;;9.40;1.45;;;6.80;99.90;;;;;;5086709;27;47383;-69
2022/01/06 10:41:15;;;;;;;10.03;1.37;;;6.80;99.90;;;;;;5081612;27;39886;-70
2022/01/06 10:43:47;;;;;;;7.70;1.57;;;6.80;99.90;;;;;;5077002;27;47461;-70
2022/01/06 10:46:14;;;;;;;10.93;1.38;;;6.90;99.90;;;;;;5106914;27;37936;-71
2022/01/06 10:48:44;;;;;;;15.43;1.70;;;6.90;99.90;;;;;;5106010;27;35593;-70
2022/01/06 10:51:11;;;;;;;13.93;1.90;;;7.00;99.90;;;;;;5087229;27;40194;-70
2022/01/06 10:53:50;;;;;;;12.23;1.80;;;7.00;99.90;;;;;;5076061;28;39036;-70
2022/01/06 10:56:18;;;;;;;12.30;1.77;;;7.10;99.90;;;;;;5110417;27;38034;-70
2022/01/06 10:58:45;;;;;;;22.43;2.77;;;7.10;99.90;;;;;;5084381;27;37066;-70
2022/01/06 11:01:16;;;;;;;11.20;1.77;;;7.10;99.90;;;;;;5073396;28;38654;-70
2022/01/06 11:03:43;;;;;;;9.43;1.40;;;6.80;99.90;;;;;;5100525;27;38656;-70
2022/01/06 11:06:10;;;;;;;8.50;1.83;;;6.70;99.90;;;;;;5081433;27;37315;-70
2022/01/06 11:08:41;;;;;;;7.67;1.33;;;6.60;99.90;;;;;;5080382;27;38020;-70
2022/01/06 11:13:46;;;;;;;6.20;1.70;;;6.60;99.90;;;;;;5106912;27;39515;-70
2022/01/06 11:16:15;;;;;;;7.70;1.17;;;6.40;99.90;;;;;;5078165;28;38497;-70
2022/01/06 11:18:59;;;;;;;6.13;1.23;;;6.40;99.90;;;;;;5103341;27;38128;-70
2022/01/06 11:21:43;;;;;;;10.20;1.27;;;6.30;99.90;;;;;;5100571;27;39260;-70
2022/01/06 11:24:11;;;;;;;5.87;1.60;;;6.30;99.90;;;;;;5099628;27;38240;-71
2022/01/06 11:26:37;;;;;;;8.97;1.17;;;6.30;99.90;;;;;;5113678;27;37489;-70
2022/01/06 11:29:03;;;;;;;10.33;1.70;;;6.40;99.90;;;;;;5096785;27;37756;-71
2022/01/06 11:31:37;;;;;;;11.23;2.63;;;6.40;99.90;;;;;;5095524;27;48239;-71
2022/01/06 11:34:17;;;;;;;6.33;1.57;;;6.50;99.90;;;;;;5083169;27;39929;-70
2022/01/06 11:36:46;;;;;;;6.83;1.70;;;6.70;99.90;;;;;;5101786;27;39845;-71
2022/01/06 11:39:21;;;;;;;5.10;1.40;;;6.80;99.90;;;;;;5088860;27;38298;-69
2022/01/06 11:41:47;;;;;;;8.10;1.60;;;6.90;99.90;;;;;;5085924;27;39390;-70
2022/01/06 11:44:18;;;;;;;6.63;1.27;;;6.90;99.90;;;;;;5086683;27;38864;-70
2022/01/06 11:46:46;;;;;;;7.87;1.33;;;7.00;99.90;;;;;;5100043;27;38780;-70
2022/01/06 11:49:12;;;;;;;6.97;1.00;;;7.20;99.90;;;;;;5099272;27;38430;-70
2022/01/06 11:51:38;;;;;;;5.67;1.33;;;7.20;99.90;;;;;;5090884;27;40354;-70
2022/01/06 11:54:12;;;;;;;7.70;1.47;;;7.40;99.90;;;;;;5078870;27;40330;-70
2022/01/06 11:56:50;;;;;;;3.93;1.13;;;7.40;99.90;;;;;;5103315;27;37912;-70
2022/01/06 11:59:29;;;;;;;7.33;1.27;;;7.50;99.90;;;;;;5093443;27;38307;-70
2022/01/06 12:01:55;;;;;;;4.83;1.20;;;7.50;99.90;;;;;;5097011;27;40382;-70
2022/01/06 12:04:23;;;;;;;7.27;1.70;;;7.40;99.90;;;;;;5096136;27;38484;-71
2022/01/06 12:06:50;;;;;;;6.73;1.27;;;7.40;99.90;;;;;;5087632;27;38383;-70
2022/01/06 12:09:21;;;;;;;6.40;1.47;;;7.50;99.90;;;;;;5083892;27;37822;-71
2022/01/06 12:12:03;;;;;;;11.10;1.63;;;7.50;99.90;;;;;;5088561;27;39568;-71
2022/01/06 12:14:29;;;;;;;7.37;1.80;;;7.10;99.90;;;;;;5085870;27;47733;-70
2022/01/06 12:17:03;;;;;;;9.90;3.27;;;7.00;99.90;;;;;;5075250;28;39800;-70
2022/01/06 12:19:29;;;;;;;6.73;1.60;;;7.00;99.90;;;;;;5093111;27;48910;-70
2022/01/06 12:21:55;;;;;;;10.10;1.77;;;7.00;99.90;;;;;;5079409;27;37661;-71
2022/01/06 12:24:21;;;;;;;8.80;2.03;;;7.00;99.90;;;;;;5086287;27;39456;-70
2022/01/06 12:26:47;;;;;;;7.53;1.53;;;7.10;99.90;;;;;;5092793;27;38830;-72
2022/01/06 12:29:17;;;;;;;8.73;1.47;;;7.10;99.90;;;;;;5091187;27;39229;-71
2022/01/06 12:31:44;;;;;;;6.97;1.63;;;7.00;99.90;;;;;;5093780;27;40479;-71
2022/01/06 12:34:11;;;;;;;8.87;1.53;;;7.00;99.90;;;;;;5090635;27;39011;-71
2022/01/06 12:36:43;;;;;;;8.67;1.63;;;7.00;99.90;;;;;;5097001;27;39930;-71
2022/01/06 12:39:17;;;;;;;8.90;2.00;;;7.10;99.90;;;;;;5102901;27;37335;-70
2022/01/06 12:41:45;;;;;;;9.83;1.83;;;7.20;99.90;;;;;;5064601;27;40756;-71
2022/01/06 12:44:18;;;;;;;12.73;2.90;;;7.20;99.90;;;;;;5083300;27;39244;-71
2022/01/06 12:46:44;;;;;;;;;;;7.30;99.90;;;;;;5079802;28;38424;-70
2022/01/06 12:49:10;;;;;;;16.97;2.63;;;7.30;99.90;;;;;;5093360;27;37750;-71
2022/01/06 12:51:42;;;;;;;16.43;3.10;;;7.40;99.90;;;;;;5101325;27;38893;-71
2022/01/06 12:54:13;;;;;;;16.70;3.13;;;7.40;99.90;;;;;;5093692;27;36901;-71
2022/01/06 12:56:41;;;;;;;15.30;3.33;;;7.30;99.90;;;;;;5099116;27;37932;-71
2022/01/06 12:59:16;;;;;;;18.00;3.43;;;7.40;99.90;;;;;;5095479;27;38587;-71
2022/01/06 13:01:44;;;;;;;15.60;2.83;;;7.50;99.90;;;;;;5078975;27;39661;-71
2022/01/06 13:04:12;;;;;;;13.73;2.67;;;7.30;99.90;;;;;;5091207;27;42202;-72